sensor_id;sensor_type;location;lat;lon;timestamp;P1;durP1;ratioP1;P2;durP2;ratioP2
49029;SDS011;43337;52.070;4.508;2023-10-19T00:00:48;30.40;;;14.90;;
49029;SDS011;43337;52.070;4.508;2023-10-19T00:03:18;31.05;;;13.75;;
49029;SDS011;43337;52.070;4.508;2023-10-19T00:05:45;34.10;;;16.10;;
49029;SDS011;43337;52.070;4.508;2023-10-19T00:08:11;33.15;;;14.98;;
49029;SDS011;43337;52.070;4.508;2023-10-19T00:10:51;31.73;;;14.88;;
49029;SDS011;43337;52.070;4.508;2023-10-19T00:13:33;35.13;;;16.25;;
49029;SDS011;43337;52.070;4.508;2023-10-19T00:16:03;35.33;;;15.63;;
49029;SDS011;43337;52.070;4.508;2023-10-19T00:18:37;36.80;;;14.95;;
49029;SDS011;43337;52.070;4.508;2023-10-19T00:21:06;31.58;;;14.75;;
49029;SDS011;43337;52.070;4.508;2023-10-19T00:23:45;34.95;;;14.73;;
49029;SDS011;43337;52.070;4.508;2023-10-19T00:26:14;32.90;;;14.68;;
49029;SDS011;43337;52.070;4.508;2023-10-19T00:28:45;30.67;;;14.20;;
49029;SDS011;43337;52.070;4.508;2023-10-19T00:31:14;28.13;;;14.15;;
49029;SDS011;43337;52.070;4.508;2023-10-19T00:33:41;30.08;;;14.35;;
49029;SDS011;43337;52.070;4.508;2023-10-19T00:36:07;36.58;;;15.60;;
49029;SDS011;43337;52.070;4.508;2023-10-19T00:38:38;36.92;;;14.75;;
49029;SDS011;43337;52.070;4.508;2023-10-19T00:41:15;30.48;;;13.85;;
49029;SDS011;43337;52.070;4.508;2023-10-19T00:43:47;30.65;;;14.05;;
49029;SDS011;43337;52.070;4.508;2023-10-19T00:46:22;32.80;;;13.82;;
49029;SDS011;43337;52.070;4.508;2023-10-19T00:48:57;32.80;;;14.10;;
49029;SDS011;43337;52.070;4.508;2023-10-19T00:51:29;30.27;;;13.98;;
49029;SDS011;43337;52.070;4.508;2023-10-19T00:54:10;31.75;;;14.45;;
49029;SDS011;43337;52.070;4.508;2023-10-19T00:56:46;28.92;;;12.73;;
49029;SDS011;43337;52.070;4.508;2023-10-19T00:59:19;30.35;;;13.80;;
49029;SDS011;43337;52.070;4.508;2023-10-19T01:01:55;32.45;;;14.77;;
49029;SDS011;43337;52.070;4.508;2023-10-19T01:04:42;37.35;;;14.85;;
49029;SDS011;43337;52.070;4.508;2023-10-19T01:07:16;37.45;;;14.48;;
49029;SDS011;43337;52.070;4.508;2023-10-19T01:09:56;33.50;;;15.27;;
49029;SDS011;43337;52.070;4.508;2023-10-19T01:12:25;40.03;;;15.38;;
49029;SDS011;43337;52.070;4.508;2023-10-19T01:15:09;35.63;;;14.57;;
49029;SDS011;43337;52.070;4.508;2023-10-19T01:17:42;40.90;;;15.18;;
49029;SDS011;43337;52.070;4.508;2023-10-19T01:20:12;38.58;;;16.13;;
49029;SDS011;43337;52.070;4.508;2023-10-19T01:28:20;39.60;;;16.85;;
49029;SDS011;43337;52.070;4.508;2023-10-19T01:30:51;39.80;;;15.90;;
49029;SDS011;43337;52.070;4.508;2023-10-19T01:33:17;38.08;;;16.27;;
49029;SDS011;43337;52.070;4.508;2023-10-19T01:35:43;36.95;;;16.40;;
49029;SDS011;43337;52.070;4.508;2023-10-19T01:38:28;38.47;;;16.70;;
49029;SDS011;43337;52.070;4.508;2023-10-19T01:40:57;44.05;;;17.02;;
49029;SDS011;43337;52.070;4.508;2023-10-19T01:43:26;38.33;;;15.48;;
49029;SDS011;43337;52.070;4.508;2023-10-19T01:46:02;39.58;;;16.17;;
49029;SDS011;43337;52.070;4.508;2023-10-19T01:48:36;37.40;;;15.53;;
49029;SDS011;43337;52.070;4.508;2023-10-19T01:51:03;32.67;;;13.88;;
49029;SDS011;43337;52.070;4.508;2023-10-19T01:53:30;31.98;;;12.32;;
49029;SDS011;43337;52.070;4.508;2023-10-19T01:55:56;33.33;;;12.77;;
49029;SDS011;43337;52.070;4.508;2023-10-19T01:58:23;30.52;;;11.15;;
49029;SDS011;43337;52.070;4.508;2023-10-19T02:00:55;21.40;;;8.60;;
49029;SDS011;43337;52.070;4.508;2023-10-19T02:03:21;16.63;;;8.20;;
49029;SDS011;43337;52.070;4.508;2023-10-19T02:05:59;18.95;;;7.22;;
49029;SDS011;43337;52.070;4.508;2023-10-19T02:08:34;15.93;;;6.25;;
49029;SDS011;43337;52.070;4.508;2023-10-19T02:11:03;16.88;;;5.50;;
49029;SDS011;43337;52.070;4.508;2023-10-19T02:13:31;10.32;;;4.68;;
49029;SDS011;43337;52.070;4.508;2023-10-19T02:15:57;9.40;;;4.40;;
49029;SDS011;43337;52.070;4.508;2023-10-19T02:18:22;9.32;;;3.90;;
49029;SDS011;43337;52.070;4.508;2023-10-19T02:20:48;16.00;;;4.03;;
49029;SDS011;43337;52.070;4.508;2023-10-19T02:23:19;8.27;;;3.03;;
49029;SDS011;43337;52.070;4.508;2023-10-19T02:25:44;9.45;;;3.40;;
49029;SDS011;43337;52.070;4.508;2023-10-19T02:28:10;7.53;;;3.60;;
49029;SDS011;43337;52.070;4.508;2023-10-19T02:30:36;10.63;;;3.00;;
49029;SDS011;43337;52.070;4.508;2023-10-19T02:33:05;12.85;;;3.42;;
49029;SDS011;43337;52.070;4.508;2023-10-19T02:35:33;11.23;;;3.08;;
49029;SDS011;43337;52.070;4.508;2023-10-19T02:38:02;11.38;;;2.90;;
49029;SDS011;43337;52.070;4.508;2023-10-19T02:40:29;16.40;;;3.22;;
49029;SDS011;43337;52.070;4.508;2023-10-19T02:42:56;8.60;;;2.30;;
49029;SDS011;43337;52.070;4.508;2023-10-19T02:45:27;9.02;;;2.60;;
49029;SDS011;43337;52.070;4.508;2023-10-19T02:47:56;7.40;;;2.08;;
49029;SDS011;43337;52.070;4.508;2023-10-19T02:50:22;8.23;;;2.05;;
49029;SDS011;43337;52.070;4.508;2023-10-19T02:52:51;8.20;;;2.47;;
49029;SDS011;43337;52.070;4.508;2023-10-19T02:55:18;6.72;;;2.53;;
49029;SDS011;43337;52.070;4.508;2023-10-19T02:57:45;5.82;;;1.88;;
49029;SDS011;43337;52.070;4.508;2023-10-19T03:00:11;8.18;;;2.00;;
49029;SDS011;43337;52.070;4.508;2023-10-19T03:02:39;5.15;;;1.60;;
49029;SDS011;43337;52.070;4.508;2023-10-19T03:05:06;4.53;;;1.55;;
49029;SDS011;43337;52.070;4.508;2023-10-19T03:07:38;5.15;;;1.65;;
49029;SDS011;43337;52.070;4.508;2023-10-19T03:10:05;6.68;;;1.45;;
49029;SDS011;43337;52.070;4.508;2023-10-19T03:12:31;4.38;;;1.60;;
49029;SDS011;43337;52.070;4.508;2023-10-19T03:14:58;8.57;;;1.90;;
49029;SDS011;43337;52.070;4.508;2023-10-19T03:17:25;7.93;;;1.58;;
49029;SDS011;43337;52.070;4.508;2023-10-19T03:19:53;6.97;;;1.42;;
49029;SDS011;43337;52.070;4.508;2023-10-19T03:22:18;4.47;;;1.38;;
49029;SDS011;43337;52.070;4.508;2023-10-19T03:24:44;5.18;;;1.35;;
49029;SDS011;43337;52.070;4.508;2023-10-19T03:27:13;8.15;;;1.55;;
49029;SDS011;43337;52.070;4.508;2023-10-19T03:29:42;5.47;;;1.30;;
49029;SDS011;43337;52.070;4.508;2023-10-19T03:32:12;14.50;;;1.95;;
49029;SDS011;43337;52.070;4.508;2023-10-19T03:34:37;4.90;;;1.73;;
49029;SDS011;43337;52.070;4.508;2023-10-19T03:37:03;6.30;;;1.30;;
49029;SDS011;43337;52.070;4.508;2023-10-19T03:39:34;5.20;;;1.45;;
49029;SDS011;43337;52.070;4.508;2023-10-19T03:42:02;6.68;;;1.30;;
49029;SDS011;43337;52.070;4.508;2023-10-19T03:44:33;6.13;;;1.35;;
49029;SDS011;43337;52.070;4.508;2023-10-19T03:47:16;7.15;;;1.50;;
49029;SDS011;43337;52.070;4.508;2023-10-19T03:49:49;8.10;;;1.83;;
49029;SDS011;43337;52.070;4.508;2023-10-19T03:52:16;6.30;;;1.30;;
49029;SDS011;43337;52.070;4.508;2023-10-19T03:54:41;8.07;;;1.90;;
49029;SDS011;43337;52.070;4.508;2023-10-19T03:57:11;5.57;;;1.15;;
49029;SDS011;43337;52.070;4.508;2023-10-19T03:59:44;3.22;;;1.40;;
49029;SDS011;43337;52.070;4.508;2023-10-19T04:02:10;3.90;;;1.10;;
49029;SDS011;43337;52.070;4.508;2023-10-19T04:04:42;6.38;;;2.22;;
49029;SDS011;43337;52.070;4.508;2023-10-19T04:07:09;7.43;;;1.60;;
49029;SDS011;43337;52.070;4.508;2023-10-19T04:12:31;5.85;;;1.65;;
49029;SDS011;43337;52.070;4.508;2023-10-19T04:15:00;5.55;;;1.52;;
49029;SDS011;43337;52.070;4.508;2023-10-19T04:17:38;5.65;;;1.00;;
49029;SDS011;43337;52.070;4.508;2023-10-19T04:20:05;8.20;;;2.60;;
49029;SDS011;43337;52.070;4.508;2023-10-19T04:22:43;8.43;;;1.98;;
49029;SDS011;43337;52.070;4.508;2023-10-19T04:25:08;5.85;;;1.20;;
49029;SDS011;43337;52.070;4.508;2023-10-19T04:27:37;4.57;;;1.30;;
49029;SDS011;43337;52.070;4.508;2023-10-19T04:30:07;6.85;;;1.23;;
49029;SDS011;43337;52.070;4.508;2023-10-19T04:32:47;6.95;;;1.35;;
49029;SDS011;43337;52.070;4.508;2023-10-19T04:35:13;4.78;;;0.95;;
49029;SDS011;43337;52.070;4.508;2023-10-19T04:37:50;7.75;;;1.30;;
49029;SDS011;43337;52.070;4.508;2023-10-19T04:40:17;4.22;;;1.10;;
49029;SDS011;43337;52.070;4.508;2023-10-19T04:42:43;7.60;;;1.30;;
49029;SDS011;43337;52.070;4.508;2023-10-19T04:45:09;8.68;;;1.83;;
49029;SDS011;43337;52.070;4.508;2023-10-19T04:47:37;7.43;;;1.10;;
49029;SDS011;43337;52.070;4.508;2023-10-19T04:50:03;7.30;;;1.63;;
49029;SDS011;43337;52.070;4.508;2023-10-19T04:52:29;4.30;;;0.90;;
49029;SDS011;43337;52.070;4.508;2023-10-19T04:54:54;10.13;;;1.75;;
49029;SDS011;43337;52.070;4.508;2023-10-19T04:57:20;6.40;;;1.23;;
49029;SDS011;43337;52.070;4.508;2023-10-19T04:59:48;5.28;;;1.45;;
49029;SDS011;43337;52.070;4.508;2023-10-19T05:02:15;9.52;;;1.70;;
49029;SDS011;43337;52.070;4.508;2023-10-19T05:04:41;3.75;;;1.55;;
49029;SDS011;43337;52.070;4.508;2023-10-19T05:07:06;7.93;;;1.48;;
49029;SDS011;43337;52.070;4.508;2023-10-19T05:09:36;4.70;;;1.00;;
49029;SDS011;43337;52.070;4.508;2023-10-19T05:12:04;5.75;;;1.23;;
49029;SDS011;43337;52.070;4.508;2023-10-19T05:14:34;5.43;;;1.30;;
49029;SDS011;43337;52.070;4.508;2023-10-19T05:17:01;4.05;;;1.10;;
49029;SDS011;43337;52.070;4.508;2023-10-19T05:19:31;7.97;;;1.27;;
49029;SDS011;43337;52.070;4.508;2023-10-19T05:21:57;8.00;;;1.88;;
49029;SDS011;43337;52.070;4.508;2023-10-19T05:24:24;8.25;;;1.63;;
49029;SDS011;43337;52.070;4.508;2023-10-19T05:26:52;5.38;;;1.15;;
49029;SDS011;43337;52.070;4.508;2023-10-19T05:29:24;6.60;;;1.20;;
49029;SDS011;43337;52.070;4.508;2023-10-19T05:31:53;6.70;;;1.20;;
49029;SDS011;43337;52.070;4.508;2023-10-19T05:34:22;8.00;;;1.10;;
49029;SDS011;43337;52.070;4.508;2023-10-19T05:36:52;4.72;;;1.10;;
49029;SDS011;43337;52.070;4.508;2023-10-19T05:39:19;4.07;;;1.02;;
49029;SDS011;43337;52.070;4.508;2023-10-19T05:41:46;6.13;;;1.20;;
49029;SDS011;43337;52.070;4.508;2023-10-19T05:44:12;13.85;;;1.83;;
49029;SDS011;43337;52.070;4.508;2023-10-19T05:46:37;9.93;;;2.25;;
49029;SDS011;43337;52.070;4.508;2023-10-19T05:49:05;4.20;;;2.00;;
49029;SDS011;43337;52.070;4.508;2023-10-19T05:51:31;8.77;;;1.40;;
49029;SDS011;43337;52.070;4.508;2023-10-19T05:53:58;11.55;;;1.77;;
49029;SDS011;43337;52.070;4.508;2023-10-19T05:56:29;6.72;;;1.92;;
49029;SDS011;43337;52.070;4.508;2023-10-19T05:58:59;7.47;;;1.38;;
49029;SDS011;43337;52.070;4.508;2023-10-19T06:01:27;6.40;;;1.60;;
49029;SDS011;43337;52.070;4.508;2023-10-19T06:03:52;8.90;;;1.33;;
49029;SDS011;43337;52.070;4.508;2023-10-19T06:06:21;6.03;;;1.48;;
49029;SDS011;43337;52.070;4.508;2023-10-19T06:08:50;7.05;;;1.25;;
49029;SDS011;43337;52.070;4.508;2023-10-19T06:11:18;9.65;;;1.65;;
49029;SDS011;43337;52.070;4.508;2023-10-19T06:13:44;15.43;;;4.20;;
49029;SDS011;43337;52.070;4.508;2023-10-19T06:16:09;7.65;;;2.72;;
49029;SDS011;43337;52.070;4.508;2023-10-19T06:18:35;6.22;;;2.08;;
49029;SDS011;43337;52.070;4.508;2023-10-19T06:21:02;7.50;;;2.22;;
49029;SDS011;43337;52.070;4.508;2023-10-19T06:23:29;10.98;;;2.78;;
49029;SDS011;43337;52.070;4.508;2023-10-19T06:25:56;11.40;;;5.22;;
49029;SDS011;43337;52.070;4.508;2023-10-19T06:28:22;9.95;;;3.40;;
49029;SDS011;43337;52.070;4.508;2023-10-19T06:30:48;12.63;;;3.90;;
49029;SDS011;43337;52.070;4.508;2023-10-19T06:33:13;7.07;;;1.60;;
49029;SDS011;43337;52.070;4.508;2023-10-19T06:35:39;7.72;;;1.20;;
49029;SDS011;43337;52.070;4.508;2023-10-19T06:38:05;7.82;;;2.33;;
49029;SDS011;43337;52.070;4.508;2023-10-19T06:40:34;7.70;;;1.25;;
49029;SDS011;43337;52.070;4.508;2023-10-19T06:43:03;11.25;;;1.42;;
49029;SDS011;43337;52.070;4.508;2023-10-19T06:45:30;7.43;;;1.67;;
49029;SDS011;43337;52.070;4.508;2023-10-19T06:47:57;19.38;;;2.05;;
49029;SDS011;43337;52.070;4.508;2023-10-19T06:50:25;6.50;;;1.55;;
49029;SDS011;43337;52.070;4.508;2023-10-19T06:52:51;7.07;;;1.48;;
49029;SDS011;43337;52.070;4.508;2023-10-19T06:55:19;7.53;;;1.30;;
49029;SDS011;43337;52.070;4.508;2023-10-19T06:57:46;15.23;;;5.38;;
49029;SDS011;43337;52.070;4.508;2023-10-19T07:00:20;12.02;;;2.00;;
49029;SDS011;43337;52.070;4.508;2023-10-19T07:02:47;10.52;;;2.20;;
49029;SDS011;43337;52.070;4.508;2023-10-19T07:05:16;7.32;;;1.20;;
49029;SDS011;43337;52.070;4.508;2023-10-19T07:07:55;8.32;;;1.25;;
49029;SDS011;43337;52.070;4.508;2023-10-19T07:10:22;8.02;;;1.75;;
49029;SDS011;43337;52.070;4.508;2023-10-19T07:12:48;9.18;;;1.85;;
49029;SDS011;43337;52.070;4.508;2023-10-19T07:15:16;5.15;;;1.60;;
49029;SDS011;43337;52.070;4.508;2023-10-19T07:17:47;6.65;;;1.38;;
49029;SDS011;43337;52.070;4.508;2023-10-19T07:20:15;7.57;;;2.30;;
49029;SDS011;43337;52.070;4.508;2023-10-19T07:23:00;8.40;;;3.60;;
49029;SDS011;43337;52.070;4.508;2023-10-19T07:25:47;9.02;;;2.80;;
49029;SDS011;43337;52.070;4.508;2023-10-19T07:28:17;12.00;;;1.95;;
49029;SDS011;43337;52.070;4.508;2023-10-19T07:30:44;5.53;;;1.17;;
49029;SDS011;43337;52.070;4.508;2023-10-19T07:33:11;6.43;;;1.60;;
49029;SDS011;43337;52.070;4.508;2023-10-19T07:35:44;10.90;;;2.42;;
49029;SDS011;43337;52.070;4.508;2023-10-19T07:38:12;7.18;;;1.67;;
49029;SDS011;43337;52.070;4.508;2023-10-19T07:40:39;9.95;;;1.67;;
49029;SDS011;43337;52.070;4.508;2023-10-19T07:43:09;7.03;;;1.38;;
49029;SDS011;43337;52.070;4.508;2023-10-19T07:45:36;10.77;;;1.48;;
49029;SDS011;43337;52.070;4.508;2023-10-19T07:48:02;7.53;;;1.70;;
49029;SDS011;43337;52.070;4.508;2023-10-19T07:50:34;7.55;;;1.50;;
49029;SDS011;43337;52.070;4.508;2023-10-19T07:53:00;7.43;;;2.28;;
49029;SDS011;43337;52.070;4.508;2023-10-19T07:55:27;9.20;;;1.60;;
49029;SDS011;43337;52.070;4.508;2023-10-19T07:57:52;10.05;;;1.88;;
49029;SDS011;43337;52.070;4.508;2023-10-19T08:00:19;9.55;;;2.33;;
49029;SDS011;43337;52.070;4.508;2023-10-19T08:02:48;10.30;;;1.50;;
49029;SDS011;43337;52.070;4.508;2023-10-19T08:05:14;9.07;;;1.85;;
49029;SDS011;43337;52.070;4.508;2023-10-19T08:07:41;5.65;;;1.70;;
49029;SDS011;43337;52.070;4.508;2023-10-19T08:10:12;7.70;;;1.40;;
49029;SDS011;43337;52.070;4.508;2023-10-19T08:12:40;7.45;;;1.52;;
49029;SDS011;43337;52.070;4.508;2023-10-19T08:15:07;5.50;;;1.60;;
49029;SDS011;43337;52.070;4.508;2023-10-19T08:17:36;7.35;;;2.15;;
49029;SDS011;43337;52.070;4.508;2023-10-19T08:20:08;7.88;;;1.50;;
49029;SDS011;43337;52.070;4.508;2023-10-19T08:22:41;7.20;;;1.77;;
49029;SDS011;43337;52.070;4.508;2023-10-19T08:25:09;10.18;;;1.80;;
49029;SDS011;43337;52.070;4.508;2023-10-19T08:27:39;6.88;;;1.60;;
49029;SDS011;43337;52.070;4.508;2023-10-19T08:30:10;14.48;;;1.67;;
49029;SDS011;43337;52.070;4.508;2023-10-19T08:32:38;7.82;;;1.73;;
49029;SDS011;43337;52.070;4.508;2023-10-19T08:35:05;7.82;;;2.45;;
49029;SDS011;43337;52.070;4.508;2023-10-19T08:37:30;8.15;;;1.75;;
49029;SDS011;43337;52.070;4.508;2023-10-19T08:39:59;14.02;;;2.35;;
49029;SDS011;43337;52.070;4.508;2023-10-19T08:42:27;4.82;;;1.70;;
49029;SDS011;43337;52.070;4.508;2023-10-19T08:44:55;8.05;;;2.00;;
49029;SDS011;43337;52.070;4.508;2023-10-19T08:47:21;8.93;;;2.17;;
49029;SDS011;43337;52.070;4.508;2023-10-19T08:49:50;9.70;;;2.13;;
49029;SDS011;43337;52.070;4.508;2023-10-19T08:52:20;12.40;;;3.35;;
49029;SDS011;43337;52.070;4.508;2023-10-19T08:54:49;8.30;;;2.78;;
49029;SDS011;43337;52.070;4.508;2023-10-19T08:57:15;10.65;;;2.83;;
49029;SDS011;43337;52.070;4.508;2023-10-19T08:59:40;16.33;;;3.15;;
49029;SDS011;43337;52.070;4.508;2023-10-19T09:02:06;9.60;;;2.00;;
49029;SDS011;43337;52.070;4.508;2023-10-19T09:04:32;9.05;;;1.98;;
49029;SDS011;43337;52.070;4.508;2023-10-19T09:07:05;11.13;;;2.00;;
49029;SDS011;43337;52.070;4.508;2023-10-19T09:09:35;8.10;;;2.10;;
49029;SDS011;43337;52.070;4.508;2023-10-19T09:12:04;15.13;;;2.33;;
49029;SDS011;43337;52.070;4.508;2023-10-19T09:14:32;13.85;;;1.88;;
49029;SDS011;43337;52.070;4.508;2023-10-19T09:17:01;8.23;;;2.03;;
49029;SDS011;43337;52.070;4.508;2023-10-19T09:19:38;6.22;;;1.90;;
49029;SDS011;43337;52.070;4.508;2023-10-19T09:22:04;8.50;;;1.90;;
49029;SDS011;43337;52.070;4.508;2023-10-19T09:24:35;10.50;;;2.45;;
49029;SDS011;43337;52.070;4.508;2023-10-19T09:27:04;17.15;;;2.38;;
49029;SDS011;43337;52.070;4.508;2023-10-19T09:29:31;11.73;;;2.28;;
49029;SDS011;43337;52.070;4.508;2023-10-19T09:32:00;11.52;;;3.00;;
49029;SDS011;43337;52.070;4.508;2023-10-19T09:34:30;14.40;;;3.17;;
49029;SDS011;43337;52.070;4.508;2023-10-19T09:36:59;14.70;;;2.65;;
49029;SDS011;43337;52.070;4.508;2023-10-19T09:39:29;11.40;;;2.33;;
49029;SDS011;43337;52.070;4.508;2023-10-19T09:42:00;14.70;;;2.25;;
49029;SDS011;43337;52.070;4.508;2023-10-19T09:44:42;10.15;;;2.55;;
49029;SDS011;43337;52.070;4.508;2023-10-19T09:47:10;19.52;;;3.55;;
49029;SDS011;43337;52.070;4.508;2023-10-19T09:49:38;9.63;;;2.45;;
49029;SDS011;43337;52.070;4.508;2023-10-19T09:52:09;13.07;;;3.15;;
49029;SDS011;43337;52.070;4.508;2023-10-19T09:54:48;12.02;;;3.47;;
49029;SDS011;43337;52.070;4.508;2023-10-19T09:57:22;11.05;;;2.47;;
49029;SDS011;43337;52.070;4.508;2023-10-19T09:59:56;13.95;;;2.80;;
49029;SDS011;43337;52.070;4.508;2023-10-19T10:02:50;12.70;;;3.17;;
49029;SDS011;43337;52.070;4.508;2023-10-19T10:10:41;16.63;;;2.45;;
49029;SDS011;43337;52.070;4.508;2023-10-19T10:15:53;12.95;;;3.35;;
49029;SDS011;43337;52.070;4.508;2023-10-19T10:18:26;17.08;;;4.80;;
49029;SDS011;43337;52.070;4.508;2023-10-19T10:21:07;11.20;;;2.58;;
49029;SDS011;43337;52.070;4.508;2023-10-19T10:23:42;14.68;;;2.55;;
49029;SDS011;43337;52.070;4.508;2023-10-19T10:26:18;14.00;;;3.08;;
49029;SDS011;43337;52.070;4.508;2023-10-19T10:29:10;12.77;;;2.90;;
49029;SDS011;43337;52.070;4.508;2023-10-19T10:31:40;13.57;;;3.47;;
49029;SDS011;43337;52.070;4.508;2023-10-19T10:34:08;9.82;;;2.35;;
49029;SDS011;43337;52.070;4.508;2023-10-19T10:39:25;15.13;;;2.58;;
49029;SDS011;43337;52.070;4.508;2023-10-19T10:41:57;7.80;;;2.28;;
49029;SDS011;43337;52.070;4.508;2023-10-19T10:45:08;11.95;;;2.42;;
49029;SDS011;43337;52.070;4.508;2023-10-19T10:47:21;9.10;;;2.45;;
49029;SDS011;43337;52.070;4.508;2023-10-19T10:49:58;10.98;;;2.38;;
49029;SDS011;43337;52.070;4.508;2023-10-19T10:52:27;15.18;;;6.65;;
49029;SDS011;43337;52.070;4.508;2023-10-19T10:55:13;14.52;;;2.72;;
49029;SDS011;43337;52.070;4.508;2023-10-19T10:57:40;11.15;;;3.15;;
49029;SDS011;43337;52.070;4.508;2023-10-19T11:00:13;9.50;;;2.22;;
49029;SDS011;43337;52.070;4.508;2023-10-19T11:02:59;13.05;;;3.03;;
49029;SDS011;43337;52.070;4.508;2023-10-19T11:05:26;10.77;;;1.90;;
49029;SDS011;43337;52.070;4.508;2023-10-19T11:08:08;10.82;;;1.90;;
49029;SDS011;43337;52.070;4.508;2023-10-19T11:10:36;8.43;;;1.67;;
49029;SDS011;43337;52.070;4.508;2023-10-19T11:13:05;8.65;;;1.73;;
49029;SDS011;43337;52.070;4.508;2023-10-19T11:15:34;14.95;;;3.00;;
49029;SDS011;43337;52.070;4.508;2023-10-19T11:18:02;11.73;;;2.05;;
49029;SDS011;43337;52.070;4.508;2023-10-19T11:20:27;10.45;;;2.10;;
49029;SDS011;43337;52.070;4.508;2023-10-19T11:22:53;9.40;;;2.00;;
49029;SDS011;43337;52.070;4.508;2023-10-19T11:25:26;11.43;;;2.28;;
49029;SDS011;43337;52.070;4.508;2023-10-19T11:27:57;13.63;;;2.78;;
49029;SDS011;43337;52.070;4.508;2023-10-19T11:30:32;9.80;;;2.33;;
49029;SDS011;43337;52.070;4.508;2023-10-19T11:33:00;11.07;;;1.63;;
49029;SDS011;43337;52.070;4.508;2023-10-19T11:35:32;7.55;;;1.58;;
49029;SDS011;43337;52.070;4.508;2023-10-19T11:37:58;8.07;;;1.73;;
49029;SDS011;43337;52.070;4.508;2023-10-19T11:40:25;11.45;;;2.42;;
49029;SDS011;43337;52.070;4.508;2023-10-19T11:42:52;10.45;;;2.50;;
49029;SDS011;43337;52.070;4.508;2023-10-19T11:45:21;13.40;;;2.22;;
49029;SDS011;43337;52.070;4.508;2023-10-19T11:47:47;10.32;;;2.00;;
49029;SDS011;43337;52.070;4.508;2023-10-19T11:50:14;9.80;;;1.88;;
49029;SDS011;43337;52.070;4.508;2023-10-19T11:52:41;9.68;;;1.40;;
49029;SDS011;43337;52.070;4.508;2023-10-19T11:55:07;10.70;;;2.15;;
49029;SDS011;43337;52.070;4.508;2023-10-19T11:57:33;11.70;;;2.65;;
49029;SDS011;43337;52.070;4.508;2023-10-19T12:00:03;11.20;;;1.85;;
49029;SDS011;43337;52.070;4.508;2023-10-19T12:02:39;11.50;;;1.80;;
49029;SDS011;43337;52.070;4.508;2023-10-19T12:05:09;13.68;;;4.43;;
49029;SDS011;43337;52.070;4.508;2023-10-19T12:07:39;9.48;;;3.03;;
49029;SDS011;43337;52.070;4.508;2023-10-19T12:10:06;11.02;;;2.03;;
49029;SDS011;43337;52.070;4.508;2023-10-19T12:12:33;8.77;;;1.60;;
49029;SDS011;43337;52.070;4.508;2023-10-19T12:14:59;10.68;;;2.42;;
49029;SDS011;43337;52.070;4.508;2023-10-19T12:17:25;14.07;;;2.05;;
49029;SDS011;43337;52.070;4.508;2023-10-19T12:19:52;9.75;;;1.63;;
49029;SDS011;43337;52.070;4.508;2023-10-19T12:22:19;9.18;;;1.80;;
49029;SDS011;43337;52.070;4.508;2023-10-19T12:24:46;11.55;;;1.80;;
49029;SDS011;43337;52.070;4.508;2023-10-19T12:27:11;6.32;;;1.55;;
49029;SDS011;43337;52.070;4.508;2023-10-19T12:29:38;12.43;;;1.70;;
49029;SDS011;43337;52.070;4.508;2023-10-19T12:32:04;8.82;;;1.70;;
49029;SDS011;43337;52.070;4.508;2023-10-19T12:34:30;11.80;;;2.40;;
49029;SDS011;43337;52.070;4.508;2023-10-19T12:36:56;15.55;;;2.70;;
49029;SDS011;43337;52.070;4.508;2023-10-19T12:39:23;14.73;;;2.05;;
49029;SDS011;43337;52.070;4.508;2023-10-19T12:42:03;11.35;;;2.00;;
49029;SDS011;43337;52.070;4.508;2023-10-19T12:44:29;18.50;;;2.70;;
49029;SDS011;43337;52.070;4.508;2023-10-19T12:46:55;15.32;;;2.35;;
49029;SDS011;43337;52.070;4.508;2023-10-19T12:49:22;14.60;;;2.20;;
49029;SDS011;43337;52.070;4.508;2023-10-19T12:51:51;12.52;;;2.20;;
49029;SDS011;43337;52.070;4.508;2023-10-19T12:54:17;15.60;;;2.83;;
49029;SDS011;43337;52.070;4.508;2023-10-19T12:56:42;8.93;;;1.80;;
49029;SDS011;43337;52.070;4.508;2023-10-19T12:59:08;12.20;;;2.97;;
49029;SDS011;43337;52.070;4.508;2023-10-19T13:01:34;13.63;;;1.95;;
49029;SDS011;43337;52.070;4.508;2023-10-19T13:04:00;13.38;;;2.20;;
49029;SDS011;43337;52.070;4.508;2023-10-19T13:06:31;17.80;;;2.08;;
49029;SDS011;43337;52.070;4.508;2023-10-19T13:08:58;15.63;;;2.38;;
49029;SDS011;43337;52.070;4.508;2023-10-19T13:11:23;14.43;;;3.15;;
49029;SDS011;43337;52.070;4.508;2023-10-19T13:13:49;13.38;;;2.05;;
49029;SDS011;43337;52.070;4.508;2023-10-19T13:16:15;12.95;;;2.85;;
49029;SDS011;43337;52.070;4.508;2023-10-19T13:18:41;11.63;;;2.08;;
49029;SDS011;43337;52.070;4.508;2023-10-19T13:21:06;13.88;;;2.00;;
49029;SDS011;43337;52.070;4.508;2023-10-19T13:23:36;8.73;;;1.70;;
49029;SDS011;43337;52.070;4.508;2023-10-19T13:26:01;11.50;;;3.70;;
49029;SDS011;43337;52.070;4.508;2023-10-19T13:28:33;15.25;;;2.92;;
49029;SDS011;43337;52.070;4.508;2023-10-19T13:30:58;11.93;;;2.08;;
49029;SDS011;43337;52.070;4.508;2023-10-19T13:33:23;10.55;;;2.00;;
49029;SDS011;43337;52.070;4.508;2023-10-19T13:35:50;17.88;;;2.55;;
49029;SDS011;43337;52.070;4.508;2023-10-19T13:38:16;13.75;;;2.42;;
49029;SDS011;43337;52.070;4.508;2023-10-19T13:40:45;10.15;;;2.25;;
49029;SDS011;43337;52.070;4.508;2023-10-19T13:43:11;15.13;;;2.70;;
49029;SDS011;43337;52.070;4.508;2023-10-19T13:45:42;14.00;;;2.40;;
49029;SDS011;43337;52.070;4.508;2023-10-19T13:48:15;8.85;;;2.22;;
49029;SDS011;43337;52.070;4.508;2023-10-19T13:50:46;12.95;;;2.17;;
49029;SDS011;43337;52.070;4.508;2023-10-19T13:53:13;12.75;;;2.40;;
49029;SDS011;43337;52.070;4.508;2023-10-19T13:55:41;19.70;;;2.72;;
49029;SDS011;43337;52.070;4.508;2023-10-19T13:58:08;6.85;;;2.00;;
49029;SDS011;43337;52.070;4.508;2023-10-19T14:00:35;9.10;;;2.17;;
49029;SDS011;43337;52.070;4.508;2023-10-19T14:03:04;15.05;;;2.53;;
49029;SDS011;43337;52.070;4.508;2023-10-19T14:05:30;10.52;;;2.10;;
49029;SDS011;43337;52.070;4.508;2023-10-19T14:08:01;12.82;;;2.50;;
49029;SDS011;43337;52.070;4.508;2023-10-19T14:10:28;14.32;;;2.78;;
49029;SDS011;43337;52.070;4.508;2023-10-19T14:12:55;15.05;;;2.30;;
49029;SDS011;43337;52.070;4.508;2023-10-19T14:15:21;13.77;;;2.80;;
49029;SDS011;43337;52.070;4.508;2023-10-19T14:17:48;16.42;;;2.72;;
49029;SDS011;43337;52.070;4.508;2023-10-19T14:20:14;24.63;;;3.70;;
49029;SDS011;43337;52.070;4.508;2023-10-19T14:22:42;14.68;;;3.05;;
49029;SDS011;43337;52.070;4.508;2023-10-19T14:25:09;12.40;;;2.85;;
49029;SDS011;43337;52.070;4.508;2023-10-19T14:27:39;10.73;;;3.30;;
49029;SDS011;43337;52.070;4.508;2023-10-19T14:30:09;10.43;;;2.90;;
49029;SDS011;43337;52.070;4.508;2023-10-19T14:32:42;15.50;;;2.92;;
49029;SDS011;43337;52.070;4.508;2023-10-19T14:35:10;12.02;;;2.55;;
49029;SDS011;43337;52.070;4.508;2023-10-19T14:37:40;10.88;;;2.40;;
49029;SDS011;43337;52.070;4.508;2023-10-19T14:42:35;10.38;;;2.38;;
49029;SDS011;43337;52.070;4.508;2023-10-19T14:45:04;10.65;;;3.78;;
49029;SDS011;43337;52.070;4.508;2023-10-19T14:47:34;12.20;;;3.28;;
49029;SDS011;43337;52.070;4.508;2023-10-19T14:50:01;13.75;;;2.88;;
49029;SDS011;43337;52.070;4.508;2023-10-19T14:52:27;13.15;;;3.17;;
49029;SDS011;43337;52.070;4.508;2023-10-19T14:54:52;11.38;;;2.88;;
49029;SDS011;43337;52.070;4.508;2023-10-19T14:57:22;11.93;;;2.78;;
49029;SDS011;43337;52.070;4.508;2023-10-19T14:59:47;10.88;;;2.80;;
49029;SDS011;43337;52.070;4.508;2023-10-19T15:02:13;14.05;;;3.08;;
49029;SDS011;43337;52.070;4.508;2023-10-19T15:04:39;14.10;;;3.58;;
49029;SDS011;43337;52.070;4.508;2023-10-19T15:07:04;9.82;;;2.80;;
49029;SDS011;43337;52.070;4.508;2023-10-19T15:09:30;8.63;;;2.40;;
49029;SDS011;43337;52.070;4.508;2023-10-19T15:11:56;10.32;;;2.30;;